Time;durP1;ratioP1;P1;durP2;ratioP2;P2;SDS_P1;SDS_P2;PMS_P1;PMS_P2;Temp;Humidity;BMP_temperature;BMP_pressure;BME280_temperature;BME280_humidity;BME280_pressure;Samples;Min_cycle;Max_cycle;Signal;HPM_P1;HPM_P2
2023/04/30 00:01:43;;;;;;;7.55;2.38;;;10.70;95.10;;;;;;5012267;28;20036;-71
2023/04/30 00:04:09;;;;;;;9.20;2.25;;;10.70;95.30;;;;;;5011899;28;20037;-70
2023/04/30 00:06:35;;;;;;;14.80;2.28;;;10.80;95.30;;;;;;5011682;28;20030;-71
2023/04/30 00:09:00;;;;;;;15.73;2.53;;;10.60;95.20;;;;;;5011781;28;20049;-69
2023/04/30 00:11:26;;;;;;;10.18;2.58;;;10.60;95.30;;;;;;5011699;28;20038;-70
2023/04/30 00:13:52;;;;;;;8.32;2.55;;;10.60;95.40;;;;;;5011112;28;20445;-71
2023/04/30 00:16:18;;;;;;;14.57;2.63;;;10.60;95.40;;;;;;5010752;28;20034;-70
2023/04/30 00:18:44;;;;;;;19.35;2.75;;;10.50;95.50;;;;;;5011886;28;20065;-69
2023/04/30 00:21:10;;;;;;;9.40;3.08;;;10.60;95.40;;;;;;5011517;28;20033;-71
2023/04/30 00:23:35;;;;;;;9.63;2.30;;;10.50;95.30;;;;;;5009894;28;20053;-70
2023/04/30 00:26:01;;;;;;;14.38;2.85;;;10.50;95.60;;;;;;5011512;28;20049;-70
2023/04/30 00:28:27;;;;;;;8.50;2.55;;;10.50;95.50;;;;;;5012374;28;20026;-70
2023/04/30 00:30:53;;;;;;;9.90;2.17;;;10.40;95.40;;;;;;5011957;28;20040;-72
2023/04/30 00:33:19;;;;;;;10.23;3.05;;;10.30;95.80;;;;;;5011752;28;20057;-70
2023/04/30 00:35:45;;;;;;;7.30;1.90;;;10.30;95.80;;;;;;5012047;28;20061;-70
2023/04/30 00:38:10;;;;;;;12.02;2.83;;;10.30;95.70;;;;;;5011751;28;20420;-71
2023/04/30 00:40:39;;;;;;;9.25;2.00;;;10.30;95.70;;;;;;5011553;28;20085;-71
2023/04/30 00:43:04;;;;;;;14.50;2.50;;;10.20;95.90;;;;;;5012377;28;20149;-70
2023/04/30 00:45:30;;;;;;;11.52;2.33;;;10.30;95.90;;;;;;5011451;28;20520;-70
2023/04/30 00:47:56;;;;;;;9.55;2.25;;;10.30;95.70;;;;;;5012366;28;20065;-72
2023/04/30 00:50:22;;;;;;;12.00;3.38;;;10.30;95.60;;;;;;5010832;28;20354;-71
2023/04/30 00:52:48;;;;;;;7.93;2.28;;;10.30;95.50;;;;;;5012424;28;20022;-72
2023/04/30 00:55:14;;;;;;;12.63;2.60;;;10.30;95.70;;;;;;5012051;28;20096;-69
2023/04/30 00:57:40;;;;;;;5.72;2.38;;;10.20;95.70;;;;;;5011799;28;20511;-72
2023/04/30 01:00:10;;;;;;;6.68;2.30;;;10.30;95.60;;;;;;5012658;28;20034;-71
2023/04/30 01:02:37;;;;;;;8.23;2.70;;;10.30;95.70;;;;;;5011161;28;20117;-71
2023/04/30 01:05:03;;;;;;;10.50;3.10;;;10.10;96.10;;;;;;5011279;28;20092;-70
2023/04/30 01:07:31;;;;;;;13.63;3.05;;;10.10;95.90;;;;;;5010465;28;20175;-71
2023/04/30 01:09:57;;;;;;;8.05;2.30;;;10.10;96.00;;;;;;5010916;28;20103;-70
2023/04/30 01:12:42;;;;;;;11.05;2.63;;;10.10;96.10;;;;;;5011111;28;20030;-72
2023/04/30 01:15:07;;;;;;;12.55;3.55;;;10.00;96.10;;;;;;5009762;28;20073;-70
2023/04/30 01:17:40;;;;;;;12.35;2.25;;;10.00;96.20;;;;;;5010924;28;20061;-71
2023/04/30 01:20:08;;;;;;;8.05;2.53;;;9.90;96.80;;;;;;5011061;28;20066;-71
2023/04/30 01:22:53;;;;;;;;;;;9.80;96.80;;;;;;5010709;28;20454;-72
2023/04/30 01:25:41;;;;;;;11.38;2.42;;;9.80;97.00;;;;;;5009921;28;20125;-72
2023/04/30 01:28:15;;;;;;;4.53;2.00;;;9.80;96.70;;;;;;5010683;28;20060;-72
2023/04/30 01:30:43;;;;;;;8.73;2.58;;;9.90;96.70;;;;;;5010711;28;20113;-70
2023/04/30 01:33:10;;;;;;;9.27;1.88;;;9.80;97.00;;;;;;5010949;28;20038;-71
2023/04/30 01:35:48;;;;;;;10.65;2.40;;;9.80;96.80;;;;;;5020825;28;20091;-72
2023/04/30 01:38:31;;;;;;;6.63;2.40;;;9.90;96.60;;;;;;5034151;28;20069;-71
2023/04/30 01:41:08;;;;;;;13.07;3.20;;;9.90;96.60;;;;;;5034523;28;20021;-70
2023/04/30 01:43:46;;;;;;;11.30;2.70;;;9.90;96.80;;;;;;5034527;28;20030;-72
2023/04/30 01:46:24;;;;;;;;;;;9.80;96.70;;;;;;5034459;28;20037;-72
2023/04/30 01:48:58;;;;;;;7.03;2.30;;;9.70;97.00;;;;;;5034031;28;19960;-71
2023/04/30 01:51:36;;;;;;;11.82;2.40;;;9.70;97.00;;;;;;5034083;28;20025;-70
2023/04/30 01:54:07;;;;;;;10.07;2.40;;;9.70;96.70;;;;;;5033896;28;20140;-71
2023/04/30 01:56:52;;;;;;;11.40;2.55;;;9.60;97.00;;;;;;5033942;28;20404;-72
2023/04/30 01:59:18;;;;;;;10.02;2.30;;;9.50;97.30;;;;;;5034001;28;20026;-70
2023/04/30 02:01:45;;;;;;;8.48;2.72;;;9.40;97.30;;;;;;5034258;28;20468;-70
2023/04/30 02:04:11;;;;;;;5.63;2.40;;;9.40;97.40;;;;;;5033085;28;20116;-73
2023/04/30 02:06:36;;;;;;;6.47;2.83;;;9.30;97.50;;;;;;5033709;28;20132;-73
2023/04/30 02:09:04;;;;;;;17.42;3.90;;;9.20;97.60;;;;;;5033773;28;20037;-73
2023/04/30 02:11:30;;;;;;;7.30;2.15;;;9.20;97.70;;;;;;5033745;28;20095;-74
2023/04/30 02:13:55;;;;;;;10.35;2.25;;;9.20;97.60;;;;;;5033529;28;20034;-72
2023/04/30 02:16:21;;;;;;;7.38;2.05;;;9.30;97.50;;;;;;5032929;28;20014;-73
2023/04/30 02:18:47;;;;;;;12.25;2.72;;;9.20;97.60;;;;;;5033535;28;20037;-70
2023/04/30 02:21:13;;;;;;;7.88;2.30;;;9.00;97.90;;;;;;5033293;28;20026;-74
2023/04/30 02:23:39;;;;;;;7.53;2.65;;;9.00;97.90;;;;;;5032322;28;20068;-70
2023/04/30 02:26:05;;;;;;;8.55;2.20;;;9.00;97.90;;;;;;5032107;28;20475;-70
2023/04/30 02:28:30;;;;;;;10.98;2.13;;;9.00;97.80;;;;;;5033783;28;20036;-72
2023/04/30 02:30:56;;;;;;;10.57;2.17;;;8.80;97.90;;;;;;5033310;28;20029;-71
2023/04/30 02:33:22;;;;;;;7.82;2.00;;;8.70;98.00;;;;;;5032234;28;20040;-73
2023/04/30 02:35:48;;;;;;;8.57;2.15;;;8.70;98.20;;;;;;5033087;28;20130;-71
2023/04/30 02:38:13;;;;;;;9.63;2.35;;;8.50;98.30;;;;;;5033163;28;20095;-72
2023/04/30 02:40:41;;;;;;;6.60;2.17;;;8.60;98.30;;;;;;5033924;28;20065;-70
2023/04/30 02:43:07;;;;;;;8.43;2.03;;;8.50;98.50;;;;;;5033244;28;20052;-70
2023/04/30 02:45:33;;;;;;;6.28;2.00;;;8.50;98.40;;;;;;5032060;28;20120;-71
2023/04/30 02:47:58;;;;;;;7.38;2.35;;;8.60;98.50;;;;;;5031981;28;20132;-70
2023/04/30 02:50:24;;;;;;;4.90;2.20;;;8.40;98.30;;;;;;5031793;28;20049;-70
2023/04/30 02:52:50;;;;;;;5.95;1.98;;;8.50;98.40;;;;;;5032556;28;20083;-70
2023/04/30 02:55:16;;;;;;;6.40;1.95;;;8.40;98.40;;;;;;5032822;28;20091;-70
2023/04/30 02:57:41;;;;;;;13.10;2.22;;;8.40;98.40;;;;;;5031762;28;20052;-72
2023/04/30 03:00:08;;;;;;;18.27;3.60;;;8.30;98.40;;;;;;5032968;28;20363;-70
2023/04/30 03:02:34;;;;;;;9.48;2.45;;;8.30;98.50;;;;;;5032576;28;20096;-72
2023/04/30 03:04:59;;;;;;;8.27;2.53;;;8.30;98.50;;;;;;5032561;28;20025;-71
2023/04/30 03:07:25;;;;;;;8.95;2.65;;;8.30;98.60;;;;;;5033241;28;20053;-70
2023/04/30 03:09:51;;;;;;;18.80;2.70;;;8.20;98.60;;;;;;5031489;28;20033;-71
2023/04/30 03:12:16;;;;;;;7.68;2.55;;;8.30;98.60;;;;;;5032522;28;20108;-70
2023/04/30 03:14:42;;;;;;;9.32;2.67;;;8.30;98.70;;;;;;5032370;28;20120;-70
2023/04/30 03:17:07;;;;;;;9.80;2.22;;;8.30;98.70;;;;;;5032343;28;20033;-71
2023/04/30 03:19:34;;;;;;;9.77;2.35;;;8.30;99.00;;;;;;5033130;28;20427;-72
2023/04/30 03:21:59;;;;;;;9.82;2.50;;;8.10;98.80;;;;;;5031305;28;20094;-69
2023/04/30 03:24:25;;;;;;;8.02;2.28;;;8.20;98.90;;;;;;5032042;28;20141;-71
2023/04/30 03:26:51;;;;;;;14.50;2.45;;;8.10;98.90;;;;;;5032166;28;20126;-71
2023/04/30 03:29:16;;;;;;;11.65;3.38;;;8.10;98.90;;;;;;5032060;28;20033;-72
2023/04/30 03:31:42;;;;;;;10.70;2.90;;;8.10;98.90;;;;;;5032611;28;20033;-70
2023/04/30 03:34:08;;;;;;;9.18;2.85;;;8.10;99.00;;;;;;5031124;28;20267;-70
2023/04/30 03:36:34;;;;;;;17.98;3.28;;;8.10;99.10;;;;;;5032325;28;20170;-71
2023/04/30 03:39:01;;;;;;;5.90;2.17;;;8.10;98.90;;;;;;5031851;28;20030;-72
2023/04/30 03:41:26;;;;;;;9.82;3.28;;;8.10;98.80;;;;;;5031851;28;20277;-71
2023/04/30 03:43:53;;;;;;;17.70;3.75;;;7.90;99.00;;;;;;5031252;28;20021;-70
2023/04/30 03:46:19;;;;;;;7.28;2.75;;;7.90;99.10;;;;;;5032186;28;20116;-71
2023/04/30 03:48:44;;;;;;;15.68;3.65;;;7.90;99.10;;;;;;5031630;28;20178;-72
2023/04/30 03:51:10;;;;;;;9.75;3.47;;;7.90;99.30;;;;;;5031718;28;20464;-71
2023/04/30 03:53:36;;;;;;;11.02;3.13;;;7.90;99.10;;;;;;5031719;28;20034;-70
2023/04/30 03:56:02;;;;;;;7.93;2.38;;;7.90;99.10;;;;;;5030449;28;20018;-71
2023/04/30 03:58:29;;;;;;;10.43;3.17;;;7.90;99.20;;;;;;5031047;28;20013;-71
2023/04/30 04:00:55;;;;;;;11.40;2.70;;;7.80;99.20;;;;;;5030537;28;20409;-72
2023/04/30 04:03:21;;;;;;;11.77;2.72;;;7.80;99.30;;;;;;5031624;28;20200;-71
2023/04/30 04:05:46;;;;;;;10.07;2.67;;;7.90;99.30;;;;;;5031326;28;20026;-72
2023/04/30 04:08:12;;;;;;;15.75;2.88;;;7.80;99.50;;;;;;5030252;28;20048;-72
2023/04/30 04:10:41;;;;;;;9.43;2.85;;;7.80;99.20;;;;;;5031707;28;20128;-71
2023/04/30 04:13:07;;;;;;;11.57;2.78;;;7.70;99.20;;;;;;5031624;28;20337;-70
2023/04/30 04:15:33;;;;;;;9.73;3.20;;;7.70;99.30;;;;;;5031188;28;20034;-72
2023/04/30 04:17:58;;;;;;;8.80;2.83;;;7.70;99.30;;;;;;5029948;28;20087;-70
2023/04/30 04:20:24;;;;;;;8.32;2.53;;;7.70;99.40;;;;;;5031395;28;20041;-71
2023/04/30 04:22:50;;;;;;;10.63;2.80;;;7.70;99.40;;;;;;5031463;28;20388;-71
2023/04/30 04:25:16;;;;;;;9.43;2.95;;;7.60;99.50;;;;;;5030965;28;20041;-71
2023/04/30 04:30:24;;;;;;;11.40;2.65;;;7.70;99.40;;;;;;5026398;28;20383;-70
2023/04/30 04:32:52;;;;;;;5.93;2.55;;;7.60;99.40;;;;;;5013416;28;20052;-72
2023/04/30 04:35:19;;;;;;;13.55;3.42;;;7.80;99.40;;;;;;5030756;28;20392;-71
2023/04/30 04:37:45;;;;;;;6.68;2.60;;;7.70;99.40;;;;;;5031533;28;20079;-70
2023/04/30 04:40:11;;;;;;;10.07;3.40;;;7.60;99.50;;;;;;5030772;28;20033;-72
2023/04/30 04:42:37;;;;;;;7.03;3.13;;;7.50;99.50;;;;;;5030724;28;20030;-72
2023/04/30 04:45:06;;;;;;;9.13;2.95;;;7.50;99.70;;;;;;5030819;28;20049;-72
2023/04/30 04:47:32;;;;;;;8.30;3.20;;;7.60;99.60;;;;;;5013370;28;20030;-73
2023/04/30 04:49:57;;;;;;;15.07;3.47;;;7.60;99.50;;;;;;5030502;28;20095;-72
2023/04/30 04:52:23;;;;;;;5.75;2.55;;;7.60;99.70;;;;;;5031145;28;20017;-72
2023/04/30 04:54:49;;;;;;;11.25;3.08;;;7.70;99.60;;;;;;5030781;28;20030;-73
2023/04/30 04:57:15;;;;;;;13.50;3.47;;;7.70;99.60;;;;;;5030675;28;20116;-73
2023/04/30 04:59:40;;;;;;;11.82;3.17;;;7.60;99.60;;;;;;5030547;28;20033;-70
2023/04/30 05:02:06;;;;;;;9.27;3.33;;;7.70;99.80;;;;;;5030829;28;20060;-73
2023/04/30 05:04:32;;;;;;;7.60;2.70;;;7.70;99.60;;;;;;5031245;28;20347;-70
2023/04/30 05:06:57;;;;;;;10.50;2.88;;;7.70;99.60;;;;;;5030437;28;20041;-71
2023/04/30 05:09:23;;;;;;;8.57;3.00;;;7.70;99.80;;;;;;5032868;28;20087;-72
2023/04/30 05:11:49;;;;;;;10.25;2.60;;;7.70;99.70;;;;;;5034728;28;20039;-70
2023/04/30 05:14:14;;;;;;;5.38;2.47;;;7.70;99.90;;;;;;5034802;28;20034;-70
2023/04/30 05:16:40;;;;;;;9.30;2.78;;;7.70;99.90;;;;;;5035152;28;20383;-71
2023/04/30 05:19:08;;;;;;;10.45;3.03;;;7.70;99.90;;;;;;5034327;28;20037;-71
2023/04/30 05:21:34;;;;;;;;;;;7.80;99.90;;;;;;5034991;28;20034;-72
2023/04/30 05:24:03;;;;;;;8.98;3.15;;;7.90;99.90;;;;;;5034247;28;20220;-72
2023/04/30 05:26:28;;;;;;;8.55;2.47;;;8.00;99.80;;;;;;5034622;28;20462;-70
2023/04/30 05:28:54;;;;;;;7.07;2.95;;;8.00;99.90;;;;;;5034277;28;20064;-71
2023/04/30 05:31:20;;;;;;;7.97;2.75;;;8.00;99.90;;;;;;5017151;28;20367;-71
2023/04/30 05:33:45;;;;;;;11.30;3.28;;;8.10;99.80;;;;;;5036434;28;20049;-70
2023/04/30 05:36:12;;;;;;;11.02;3.38;;;8.20;99.80;;;;;;5016615;28;20435;-69
2023/04/30 05:38:37;;;;;;;7.07;2.85;;;8.20;99.80;;;;;;5016512;28;20111;-70
2023/04/30 05:41:03;;;;;;;6.05;3.08;;;8.30;99.50;;;;;;5033833;28;20063;-72
2023/04/30 05:43:29;;;;;;;11.35;3.28;;;8.40;99.40;;;;;;5034539;28;20037;-74
2023/04/30 05:45:55;;;;;;;7.50;2.72;;;8.40;99.60;;;;;;5016544;28;20044;-71
2023/04/30 05:48:20;;;;;;;11.15;2.90;;;8.50;99.30;;;;;;5033961;28;20026;-72
2023/04/30 05:50:46;;;;;;;14.07;2.95;;;8.60;98.90;;;;;;5034076;28;20041;-72
2023/04/30 05:53:12;;;;;;;9.63;2.80;;;8.70;98.70;;;;;;5033820;28;20026;-72
2023/04/30 05:55:38;;;;;;;8.60;2.42;;;8.80;98.40;;;;;;5034281;28;20025;-71
2023/04/30 05:58:04;;;;;;;7.90;2.90;;;8.90;97.90;;;;;;5033881;28;20490;-71
2023/04/30 06:00:30;;;;;;;12.15;2.97;;;9.00;97.60;;;;;;5033826;28;20095;-72
2023/04/30 06:02:55;;;;;;;13.65;3.45;;;9.10;97.30;;;;;;5033915;28;20044;-73
2023/04/30 06:05:21;;;;;;;13.30;3.10;;;9.10;96.80;;;;;;5033568;28;20050;-70
2023/04/30 06:07:47;;;;;;;9.90;2.70;;;9.10;96.30;;;;;;5034133;28;20036;-73
2023/04/30 06:10:12;;;;;;;15.80;3.42;;;9.20;96.20;;;;;;5016031;28;20091;-70
2023/04/30 06:12:38;;;;;;;13.35;3.03;;;9.30;96.40;;;;;;5016029;28;20519;-69
2023/04/30 06:15:05;;;;;;;10.45;2.78;;;9.40;96.50;;;;;;5033395;28;20489;-72
2023/04/30 06:17:31;;;;;;;12.13;2.88;;;9.30;96.00;;;;;;5015756;28;20030;-73
2023/04/30 06:19:59;;;;;;;11.68;3.05;;;9.30;95.50;;;;;;5015850;28;20446;-74
2023/04/30 06:22:25;;;;;;;11.55;2.33;;;9.40;95.40;;;;;;5035558;28;20030;-71
2023/04/30 06:24:51;;;;;;;13.52;2.42;;;9.50;95.10;;;;;;5033701;28;20026;-71
2023/04/30 06:27:16;;;;;;;13.07;2.97;;;9.50;94.70;;;;;;5033546;28;20033;-73
2023/04/30 06:29:42;;;;;;;18.52;2.40;;;9.50;94.40;;;;;;5033571;28;20041;-72
2023/04/30 06:32:08;;;;;;;7.82;2.08;;;9.60;94.00;;;;;;5034085;28;20135;-69
2023/04/30 06:34:33;;;;;;;10.93;2.60;;;9.70;93.70;;;;;;5033564;28;20094;-69
2023/04/30 06:36:59;;;;;;;12.35;2.70;;;9.60;93.80;;;;;;5033152;28;20045;-70
2023/04/30 06:39:25;;;;;;;5.97;2.05;;;9.70;93.50;;;;;;5015596;28;20412;-69
2023/04/30 06:41:50;;;;;;;14.10;2.78;;;9.80;93.40;;;;;;5033168;28;20351;-70
2023/04/30 06:44:17;;;;;;;18.67;2.15;;;9.80;93.40;;;;;;5033031;28;20026;-70
2023/04/30 06:46:43;;;;;;;13.95;2.15;;;9.90;93.30;;;;;;5033444;28;20022;-71
2023/04/30 06:49:09;;;;;;;8.52;2.58;;;10.00;92.90;;;;;;5033001;28;20491;-71
2023/04/30 06:51:34;;;;;;;11.45;2.42;;;10.10;93.00;;;;;;5033188;28;20068;-67
2023/04/30 06:54:00;;;;;;;11.07;2.13;;;10.50;92.60;;;;;;5033058;28;20447;-70
2023/04/30 06:56:26;;;;;;;11.93;2.28;;;10.90;91.90;;;;;;5032710;28;20037;-70
2023/04/30 06:58:51;;;;;;;10.93;2.47;;;11.10;91.50;;;;;;5033160;28;20026;-70
2023/04/30 07:01:17;;;;;;;16.55;2.22;;;11.70;91.30;;;;;;5032497;28;20459;-72
2023/04/30 07:03:43;;;;;;;10.52;2.22;;;12.20;90.70;;;;;;5032509;28;20087;-71
2023/04/30 07:06:09;;;;;;;11.77;3.50;;;12.70;89.80;;;;;;5015011;28;20103;-68
2023/04/30 07:08:35;;;;;;;8.60;2.30;;;13.20;88.60;;;;;;5032489;28;20061;-69
2023/04/30 07:11:01;;;;;;;9.07;1.92;;;13.90;87.70;;;;;;5032573;28;20064;-73
2023/04/30 07:13:26;;;;;;;5.80;1.85;;;14.50;85.90;;;;;;5032902;28;20029;-71
2023/04/30 07:15:52;;;;;;;9.23;2.05;;;14.70;83.60;;;;;;5032648;28;20087;-70
2023/04/30 07:18:18;;;;;;;6.68;1.67;;;14.60;81.90;;;;;;5032538;28;20041;-70
2023/04/30 07:20:44;;;;;;;9.38;1.92;;;14.50;82.40;;;;;;5032127;28;20056;-70
2023/04/30 07:23:09;;;;;;;12.10;2.72;;;14.70;82.30;;;;;;5032386;28;20382;-71
2023/04/30 07:25:35;;;;;;;7.85;2.13;;;15.20;81.40;;;;;;5032552;28;20030;-68
2023/04/30 07:28:01;;;;;;;11.30;2.45;;;15.60;80.90;;;;;;5031925;28;20022;-70
2023/04/30 07:30:27;;;;;;;9.63;1.85;;;16.10;79.80;;;;;;5032083;28;20136;-69
2023/04/30 07:32:52;;;;;;;8.32;1.98;;;16.30;77.00;;;;;;5014083;28;20060;-71
2023/04/30 07:35:18;;;;;;;8.43;1.60;;;16.90;77.40;;;;;;5032061;28;20360;-72
2023/04/30 07:37:44;;;;;;;8.77;2.40;;;17.40;76.10;;;;;;5032608;28;20371;-71
2023/04/30 07:40:11;;;;;;;14.27;3.10;;;17.30;73.30;;;;;;5014506;28;20128;-73
2023/04/30 07:42:46;;;;;;;4.45;1.63;;;16.90;75.00;;;;;;5031869;28;20187;-73
2023/04/30 07:45:12;;;;;;;9.57;2.03;;;17.40;74.70;;;;;;5014271;28;20056;-71
2023/04/30 07:47:38;;;;;;;8.95;2.13;;;18.40;72.90;;;;;;5014225;28;20475;-70
2023/04/30 07:50:04;;;;;;;7.50;1.85;;;19.00;71.70;;;;;;5014047;28;20029;-72
2023/04/30 07:52:29;;;;;;;7.88;2.13;;;19.40;69.70;;;;;;5014681;28;20036;-70
2023/04/30 07:54:55;;;;;;;10.02;2.70;;;19.40;66.50;;;;;;5031547;28;20029;-71
2023/04/30 07:57:21;;;;;;;8.32;2.30;;;19.40;66.40;;;;;;5031627;28;20040;-73
2023/04/30 07:59:46;;;;;;;9.88;2.53;;;19.60;65.70;;;;;;5031491;28;20037;-71
2023/04/30 08:02:12;;;;;;;10.75;2.33;;;19.20;65.00;;;;;;5031441;28;20095;-71
2023/04/30 08:04:38;;;;;;;12.20;3.00;;;18.60;65.60;;;;;;5032073;28;20334;-74
2023/04/30 08:07:03;;;;;;;11.82;2.50;;;18.40;65.60;;;;;;5014099;28;20322;-73
2023/04/30 08:09:29;;;;;;;9.65;1.88;;;18.70;65.20;;;;;;5031405;28;20107;-71
2023/04/30 08:11:55;;;;;;;11.82;2.38;;;19.20;65.40;;;;;;5031757;28;20087;-69
2023/04/30 08:14:20;;;;;;;7.55;2.45;;;19.80;63.30;;;;;;5031495;28;20029;-71
2023/04/30 08:16:46;;;;;;;4.40;1.90;;;20.00;63.50;;;;;;5014288;28;20026;-72
2023/04/30 08:19:12;;;;;;;6.15;1.83;;;20.70;62.30;;;;;;5031289;28;20435;-72
2023/04/30 08:21:38;;;;;;;8.48;2.50;;;21.30;60.50;;;;;;5031557;28;20095;-71
2023/04/30 08:24:04;;;;;;;14.10;2.75;;;21.90;58.20;;;;;;5031319;28;20107;-77
2023/04/30 08:26:30;;;;;;;9.52;2.25;;;22.60;58.40;;;;;;5031312;28;20065;-72
2023/04/30 08:28:55;;;;;;;5.65;1.80;;;23.10;57.40;;;;;;5013638;28;20076;-72
2023/04/30 08:31:21;;;;;;;6.30;2.33;;;23.20;54.70;;;;;;5014004;28;20375;-75
2023/04/30 08:33:47;;;;;;;5.07;2.03;;;23.90;54.90;;;;;;5031062;28;20091;-72
2023/04/30 08:36:12;;;;;;;9.25;1.92;;;24.00;53.00;;;;;;5031208;28;20025;-81
2023/04/30 08:38:38;;;;;;;4.55;1.70;;;24.30;52.60;;;;;;5031275;28;20033;-73
2023/04/30 08:41:15;;;;;;;10.70;2.17;;;24.40;51.80;;;;;;5031079;28;20040;-75
2023/04/30 08:43:43;;;;;;;7.27;2.10;;;24.70;51.10;;;;;;5031041;28;20017;-75
2023/04/30 08:46:11;;;;;;;6.97;1.73;;;25.00;49.90;;;;;;5030516;28;20095;-72
2023/04/30 08:48:38;;;;;;;6.43;1.90;;;25.30;48.60;;;;;;5030616;28;20462;-72
2023/04/30 08:51:04;;;;;;;6.55;2.20;;;25.50;48.50;;;;;;5030848;28;20088;-73
2023/04/30 08:53:33;;;;;;;9.13;2.28;;;25.70;48.30;;;;;;5013484;28;20044;-73
2023/04/30 08:55:59;;;;;;;7.13;2.13;;;25.90;46.30;;;;;;5030602;28;20025;-73
2023/04/30 08:58:24;;;;;;;8.52;2.40;;;25.80;46.10;;;;;;5031231;28;20341;-73
2023/04/30 09:00:50;;;;;;;6.57;2.50;;;26.00;46.10;;;;;;5030656;28;20068;-73
2023/04/30 09:03:16;;;;;;;9.13;1.90;;;26.60;45.80;;;;;;5030587;28;20030;-74
2023/04/30 09:05:41;;;;;;;6.30;2.08;;;26.60;42.80;;;;;;5030625;28;20033;-73
2023/04/30 09:08:07;;;;;;;7.63;2.00;;;27.00;42.30;;;;;;5013338;28;20017;-72
2023/04/30 09:10:34;;;;;;;5.05;1.83;;;27.70;42.40;;;;;;5031260;28;20103;-72
2023/04/30 09:13:09;;;;;;;10.52;2.35;;;28.00;42.00;;;;;;5030433;28;20064;-72
2023/04/30 09:15:36;;;;;;;6.30;1.85;;;28.30;41.20;;;;;;5030565;28;20041;-73
2023/04/30 09:18:20;;;;;;;9.68;2.05;;;28.60;39.50;;;;;;5030657;28;20036;-72
2023/04/30 09:20:57;;;;;;;8.65;2.47;;;28.20;40.60;;;;;;5013012;28;20232;-72
2023/04/30 09:23:23;;;;;;;7.40;1.83;;;28.30;40.00;;;;;;5030547;28;20086;-76
2023/04/30 09:25:49;;;;;;;8.82;2.55;;;28.20;39.90;;;;;;5013487;28;20078;-73
2023/04/30 09:28:53;;;;;;;7.15;2.30;;;28.40;39.50;;;;;;5010339;28;20033;-74
2023/04/30 09:31:20;;;;;;;8.00;2.25;;;28.40;39.60;;;;;;5006284;28;20054;-71
2023/04/30 09:33:46;;;;;;;6.47;2.72;;;28.60;37.90;;;;;;4991010;28;20034;-74
2023/04/30 09:36:12;;;;;;;11.35;2.20;;;28.00;36.30;;;;;;4990982;28;20049;-73
2023/04/30 09:38:38;;;;;;;6.30;1.92;;;27.50;36.90;;;;;;4991019;28;20527;-73
2023/04/30 09:41:04;;;;;;;7.70;2.15;;;27.80;36.40;;;;;;4991325;28;20117;-72
2023/04/30 09:43:30;;;;;;;7.65;1.60;;;27.00;35.80;;;;;;4990605;28;20109;-73
2023/04/30 09:45:58;;;;;;;4.88;2.40;;;28.10;36.10;;;;;;4991168;28;20213;-72
2023/04/30 09:48:27;;;;;;;6.00;1.75;;;28.90;36.20;;;;;;4991300;28;20528;-72
2023/04/30 09:50:52;;;;;;;6.70;1.90;;;29.00;35.40;;;;;;4990976;28;20070;-72
2023/04/30 09:53:19;;;;;;;9.00;2.33;;;28.20;36.50;;;;;;4989470;28;20165;-71
2023/04/30 09:55:47;;;;;;;14.02;7.82;;;27.50;35.90;;;;;;4993842;28;20431;-72
2023/04/30 09:58:14;;;;;;;9.05;2.47;;;27.50;35.10;;;;;;4977205;28;20042;-73
2023/04/30 10:00:41;;;;;;;7.22;1.73;;;27.60;36.40;;;;;;4974923;28;20495;-74
2023/04/30 10:03:09;;;;;;;7.38;1.88;;;27.90;36.10;;;;;;4974947;28;20377;-72
2023/04/30 10:05:46;;;;;;;6.32;1.98;;;27.80;36.10;;;;;;4974702;28;20043;-72
2023/04/30 10:08:31;;;;;;;13.13;2.47;;;27.00;36.00;;;;;;4974721;28;20035;-73
2023/04/30 10:11:06;;;;;;;5.65;2.05;;;27.40;36.10;;;;;;4989579;28;20499;-71
2023/04/30 10:13:40;;;;;;;7.85;2.22;;;27.20;36.10;;;;;;4973957;28;20365;-74
2023/04/30 10:16:18;;;;;;;5.50;1.85;;;27.40;36.00;;;;;;4974630;28;20023;-72
2023/04/30 10:18:48;;;;;;;8.40;1.80;;;26.80;36.00;;;;;;4989739;28;20026;-74
2023/04/30 10:21:16;;;;;;;8.10;1.85;;;26.30;36.10;;;;;;4974522;28;20535;-74
2023/04/30 10:23:43;;;;;;;;;;;25.40;36.30;;;;;;4975008;28;20122;-73
2023/04/30 10:26:12;;;;;;;9.88;2.58;;;25.10;36.90;;;;;;4974480;28;20386;-73
2023/04/30 10:28:39;;;;;;;8.25;1.77;;;24.60;37.80;;;;;;4978391;28;20019;-70
2023/04/30 10:31:06;;;;;;;6.65;1.60;;;24.00;38.60;;;;;;5013460;28;20152;-71
2023/04/30 10:33:52;;;;;;;9.73;2.63;;;23.50;39.10;;;;;;5013603;28;20045;-71
2023/04/30 10:36:27;;;;;;;8.88;2.25;;;22.60;39.30;;;;;;4995649;28;20370;-72
2023/04/30 10:38:53;;;;;;;7.75;1.67;;;22.60;40.30;;;;;;5013339;28;20513;-84
2023/04/30 10:41:19;;;;;;;8.93;1.90;;;22.30;41.50;;;;;;5013356;28;20116;-76
2023/04/30 10:43:48;;;;;;;11.25;2.40;;;22.30;40.80;;;;;;5013735;28;20368;-76
2023/04/30 10:46:22;;;;;;;8.32;2.10;;;22.00;40.70;;;;;;5012818;28;20033;-73
2023/04/30 10:48:49;;;;;;;6.85;2.15;;;21.60;41.20;;;;;;5013185;28;20468;-71
2023/04/30 10:51:15;;;;;;;6.05;1.98;;;21.50;41.30;;;;;;5013114;28;20037;-72
2023/04/30 10:53:41;;;;;;;7.05;1.85;;;21.50;40.90;;;;;;5013073;28;20030;-78
2023/04/30 10:56:10;;;;;;;7.75;1.75;;;21.30;41.30;;;;;;5012956;28;20026;-72
2023/04/30 10:58:39;;;;;;;9.20;1.83;;;20.60;41.60;;;;;;5013463;28;20364;-71
2023/04/30 11:01:10;;;;;;;5.90;2.00;;;20.40;41.60;;;;;;5012965;28;20380;-74
2023/04/30 11:03:37;;;;;;;6.38;1.75;;;20.20;42.00;;;;;;5030562;28;20072;-74
2023/04/30 11:06:14;;;;;;;7.10;2.00;;;20.30;42.20;;;;;;5031536;28;20041;-72
2023/04/30 11:08:44;;;;;;;5.35;1.85;;;20.10;42.00;;;;;;5032799;28;20033;-71
2023/04/30 11:11:10;;;;;;;6.82;1.92;;;20.20;42.30;;;;;;5032373;28;20029;-71
2023/04/30 11:13:43;;;;;;;6.60;2.35;;;19.20;42.40;;;;;;5033142;28;20025;-72
2023/04/30 11:16:10;;;;;;;6.50;2.10;;;19.20;42.40;;;;;;5032312;28;20034;-72
2023/04/30 11:18:46;;;;;;;5.93;1.92;;;19.00;42.50;;;;;;5014852;28;20041;-75
2023/04/30 11:21:12;;;;;;;7.80;2.70;;;19.50;43.30;;;;;;5014837;28;20413;-72
2023/04/30 11:23:42;;;;;;;11.93;3.75;;;19.50;43.80;;;;;;5014517;28;20190;-72
2023/04/30 11:26:08;;;;;;;8.73;2.17;;;18.90;43.20;;;;;;5032676;28;20026;-72
2023/04/30 11:28:36;;;;;;;6.75;1.85;;;19.30;43.40;;;;;;5032521;28;20086;-72
2023/04/30 11:31:02;;;;;;;9.52;2.05;;;19.40;42.30;;;;;;5021456;28;20395;-72
2023/04/30 11:33:30;;;;;;;6.78;1.88;;;19.30;42.60;;;;;;5011225;28;20038;-74
2023/04/30 11:35:58;;;;;;;11.38;2.35;;;19.20;43.00;;;;;;5012247;28;20030;-75
2023/04/30 11:38:28;;;;;;;8.85;2.30;;;19.30;43.10;;;;;;5012215;28;20030;-73
2023/04/30 11:40:55;;;;;;;6.63;1.85;;;19.10;43.20;;;;;;4995211;28;20432;-71
2023/04/30 11:43:28;;;;;;;5.20;1.90;;;19.20;43.70;;;;;;5012810;28;20037;-72
2023/04/30 11:46:09;;;;;;;7.97;2.03;;;19.20;43.20;;;;;;5012240;28;20108;-73
2023/04/30 11:48:37;;;;;;;5.93;2.35;;;19.00;42.80;;;;;;5011942;28;20133;-72
2023/04/30 11:51:18;;;;;;;10.70;2.25;;;19.00;43.20;;;;;;5011939;28;20186;-74
2023/04/30 11:53:46;;;;;;;7.57;1.85;;;19.20;43.80;;;;;;5012017;28;20030;-74
2023/04/30 11:56:11;;;;;;;7.97;2.10;;;19.20;43.00;;;;;;5010885;28;20410;-72
2023/04/30 11:58:38;;;;;;;8.55;2.30;;;19.20;42.90;;;;;;5012387;28;20508;-73
2023/04/30 12:01:06;;;;;;;5.43;1.77;;;19.10;43.10;;;;;;4994478;28;20141;-74
2023/04/30 12:03:41;;;;;;;6.55;1.95;;;18.80;42.30;;;;;;5011742;28;20539;-73
2023/04/30 12:06:09;;;;;;;4.55;1.45;;;18.60;43.10;;;;;;5011649;28;20037;-72
2023/04/30 12:08:35;;;;;;;3.35;1.70;;;18.40;43.20;;;;;;5011677;28;20042;-73
2023/04/30 12:11:01;;;;;;;6.75;2.30;;;18.20;44.40;;;;;;5011420;28;20030;-74
2023/04/30 12:13:26;;;;;;;8.13;2.00;;;18.60;44.70;;;;;;5012025;28;20423;-73
2023/04/30 12:15:59;;;;;;;6.65;1.75;;;18.20;42.90;;;;;;5011287;28;20475;-72
2023/04/30 12:18:25;;;;;;;5.38;2.17;;;18.40;43.00;;;;;;5011041;28;20030;-75
2023/04/30 12:20:51;;;;;;;12.20;2.67;;;18.60;43.70;;;;;;5011377;28;20030;-74
2023/04/30 12:23:18;;;;;;;5.95;1.90;;;18.70;44.40;;;;;;5011405;28;20402;-75
2023/04/30 12:25:44;;;;;;;8.38;2.00;;;18.80;44.10;;;;;;5011669;28;20037;-73
2023/04/30 12:28:10;;;;;;;6.32;2.03;;;18.80;44.30;;;;;;5011176;28;20034;-74
2023/04/30 12:30:37;;;;;;;5.50;2.17;;;18.80;43.70;;;;;;4990352;28;20049;-75
2023/04/30 12:33:03;;;;;;;9.30;2.35;;;18.70;43.40;;;;;;4991728;28;20034;-76
2023/04/30 12:35:30;;;;;;;7.80;1.88;;;18.80;43.60;;;;;;4995578;28;20045;-75
2023/04/30 12:38:04;;;;;;;9.07;2.10;;;18.90;44.00;;;;;;5011350;28;20109;-72
2023/04/30 12:40:30;;;;;;;6.78;1.83;;;18.80;43.80;;;;;;5012021;28;20068;-73
2023/04/30 12:43:04;;;;;;;6.93;1.98;;;18.80;43.70;;;;;;5011150;28;20025;-74
2023/04/30 12:45:54;;;;;;;5.32;1.67;;;18.70;43.70;;;;;;5011018;28;20111;-73
2023/04/30 12:48:22;;;;;;;7.45;2.22;;;18.80;43.60;;;;;;5010940;28;20038;-73
2023/04/30 12:50:54;;;;;;;5.88;2.15;;;18.80;43.50;;;;;;5011037;28;20065;-74
2023/04/30 12:53:21;;;;;;;8.00;1.80;;;18.60;42.90;;;;;;5010921;28;20115;-75